sensor_id;sensor_type;location;lat;lon;timestamp;P1;durP1;ratioP1;P2;durP2;ratioP2
21806;SDS011;11065;50.786;7.840;2023-02-01T00:00:16;9.93;;;6.50;;
21806;SDS011;11065;50.786;7.840;2023-02-01T00:02:45;10.93;;;7.37;;
21806;SDS011;11065;50.786;7.840;2023-02-01T00:05:14;11.60;;;7.30;;
21806;SDS011;11065;50.786;7.840;2023-02-01T00:07:43;12.10;;;7.33;;
21806;SDS011;11065;50.786;7.840;2023-02-01T00:10:15;14.73;;;7.33;;
21806;SDS011;11065;50.786;7.840;2023-02-01T00:12:43;10.90;;;7.17;;
21806;SDS011;11065;50.786;7.840;2023-02-01T00:15:11;10.90;;;6.93;;
21806;SDS011;11065;50.786;7.840;2023-02-01T00:17:40;12.10;;;7.43;;
21806;SDS011;11065;50.786;7.840;2023-02-01T00:20:08;10.10;;;6.23;;
21806;SDS011;11065;50.786;7.840;2023-02-01T00:22:38;10.27;;;7.00;;
21806;SDS011;11065;50.786;7.840;2023-02-01T00:25:07;10.40;;;7.20;;
21806;SDS011;11065;50.786;7.840;2023-02-01T00:27:35;11.10;;;6.53;;
21806;SDS011;11065;50.786;7.840;2023-02-01T00:30:03;11.27;;;6.13;;
21806;SDS011;11065;50.786;7.840;2023-02-01T00:32:33;9.67;;;6.30;;
21806;SDS011;11065;50.786;7.840;2023-02-01T00:35:03;9.67;;;6.37;;
21806;SDS011;11065;50.786;7.840;2023-02-01T00:37:32;12.47;;;6.43;;
21806;SDS011;11065;50.786;7.840;2023-02-01T00:40:01;10.97;;;6.37;;
21806;SDS011;11065;50.786;7.840;2023-02-01T00:42:29;12.03;;;6.47;;
21806;SDS011;11065;50.786;7.840;2023-02-01T00:44:57;11.33;;;6.63;;
21806;SDS011;11065;50.786;7.840;2023-02-01T00:47:25;10.20;;;6.20;;
21806;SDS011;11065;50.786;7.840;2023-02-01T00:49:53;11.03;;;6.10;;
21806;SDS011;11065;50.786;7.840;2023-02-01T00:52:21;11.30;;;7.00;;
21806;SDS011;11065;50.786;7.840;2023-02-01T00:54:49;10.63;;;6.17;;
21806;SDS011;11065;50.786;7.840;2023-02-01T00:57:19;11.93;;;7.03;;
21806;SDS011;11065;50.786;7.840;2023-02-01T00:59:47;11.97;;;6.37;;
21806;SDS011;11065;50.786;7.840;2023-02-01T01:02:15;14.63;;;8.53;;
21806;SDS011;11065;50.786;7.840;2023-02-01T01:04:43;15.07;;;7.63;;
21806;SDS011;11065;50.786;7.840;2023-02-01T01:07:11;14.63;;;7.23;;
21806;SDS011;11065;50.786;7.840;2023-02-01T01:09:39;9.20;;;6.00;;
21806;SDS011;11065;50.786;7.840;2023-02-01T01:12:07;12.77;;;7.30;;
21806;SDS011;11065;50.786;7.840;2023-02-01T01:14:37;9.93;;;6.23;;
21806;SDS011;11065;50.786;7.840;2023-02-01T01:17:05;13.53;;;6.70;;
21806;SDS011;11065;50.786;7.840;2023-02-01T01:19:33;10.57;;;6.67;;
21806;SDS011;11065;50.786;7.840;2023-02-01T01:22:01;9.83;;;6.67;;
21806;SDS011;11065;50.786;7.840;2023-02-01T01:24:29;14.33;;;6.70;;
21806;SDS011;11065;50.786;7.840;2023-02-01T01:26:57;9.97;;;6.33;;
21806;SDS011;11065;50.786;7.840;2023-02-01T01:29:25;10.47;;;6.33;;
21806;SDS011;11065;50.786;7.840;2023-02-01T01:31:55;10.10;;;5.90;;
21806;SDS011;11065;50.786;7.840;2023-02-01T01:34:23;12.00;;;7.33;;
21806;SDS011;11065;50.786;7.840;2023-02-01T01:36:51;10.07;;;5.73;;
21806;SDS011;11065;50.786;7.840;2023-02-01T01:39:19;11.03;;;6.23;;
21806;SDS011;11065;50.786;7.840;2023-02-01T01:41:47;10.83;;;6.10;;
21806;SDS011;11065;50.786;7.840;2023-02-01T01:47:30;8.97;;;5.10;;
21806;SDS011;11065;50.786;7.840;2023-02-01T01:50:03;11.30;;;5.60;;
21806;SDS011;11065;50.786;7.840;2023-02-01T01:52:34;10.53;;;4.73;;
21806;SDS011;11065;50.786;7.840;2023-02-01T01:55:04;10.77;;;4.23;;
21806;SDS011;11065;50.786;7.840;2023-02-01T01:57:33;9.03;;;4.77;;
21806;SDS011;11065;50.786;7.840;2023-02-01T02:00:07;10.13;;;4.27;;
21806;SDS011;11065;50.786;7.840;2023-02-01T02:02:44;9.53;;;4.33;;
21806;SDS011;11065;50.786;7.840;2023-02-01T02:05:14;7.83;;;3.87;;
21806;SDS011;11065;50.786;7.840;2023-02-01T02:07:46;11.03;;;4.30;;
21806;SDS011;11065;50.786;7.840;2023-02-01T02:10:17;8.60;;;4.40;;
21806;SDS011;11065;50.786;7.840;2023-02-01T02:12:46;12.27;;;4.70;;
21806;SDS011;11065;50.786;7.840;2023-02-01T02:15:15;7.47;;;3.60;;
21806;SDS011;11065;50.786;7.840;2023-02-01T02:17:47;8.63;;;4.07;;
21806;SDS011;11065;50.786;7.840;2023-02-01T02:23:31;6.70;;;3.10;;
21806;SDS011;11065;50.786;7.840;2023-02-01T02:29:31;7.93;;;3.93;;
21806;SDS011;11065;50.786;7.840;2023-02-01T02:35:26;7.37;;;2.87;;
21806;SDS011;11065;50.786;7.840;2023-02-01T02:38:01;7.83;;;3.30;;
21806;SDS011;11065;50.786;7.840;2023-02-01T02:40:36;6.63;;;2.77;;
21806;SDS011;11065;50.786;7.840;2023-02-01T02:43:10;10.33;;;3.77;;
21806;SDS011;11065;50.786;7.840;2023-02-01T02:46:01;7.43;;;2.73;;
21806;SDS011;11065;50.786;7.840;2023-02-01T02:48:52;5.57;;;2.50;;
21806;SDS011;11065;50.786;7.840;2023-02-01T02:51:28;10.20;;;3.00;;
21806;SDS011;11065;50.786;7.840;2023-02-01T02:54:21;5.90;;;2.40;;
21806;SDS011;11065;50.786;7.840;2023-02-01T02:57:10;10.13;;;2.90;;
21806;SDS011;11065;50.786;7.840;2023-02-01T03:00:00;9.67;;;2.33;;
21806;SDS011;11065;50.786;7.840;2023-02-01T03:02:49;8.37;;;2.73;;
21806;SDS011;11065;50.786;7.840;2023-02-01T03:05:36;6.33;;;2.40;;
21806;SDS011;11065;50.786;7.840;2023-02-01T03:08:11;4.73;;;2.17;;
21806;SDS011;11065;50.786;7.840;2023-02-01T03:10:43;9.93;;;2.90;;
21806;SDS011;11065;50.786;7.840;2023-02-01T03:13:18;13.53;;;3.13;;
21806;SDS011;11065;50.786;7.840;2023-02-01T03:15:53;7.80;;;2.77;;
21806;SDS011;11065;50.786;7.840;2023-02-01T03:18:28;7.10;;;2.50;;
21806;SDS011;11065;50.786;7.840;2023-02-01T03:21:01;7.97;;;2.37;;
21806;SDS011;11065;50.786;7.840;2023-02-01T03:23:34;8.77;;;2.13;;
21806;SDS011;11065;50.786;7.840;2023-02-01T03:26:06;8.97;;;2.77;;
21806;SDS011;11065;50.786;7.840;2023-02-01T03:28:38;8.07;;;2.57;;
21806;SDS011;11065;50.786;7.840;2023-02-01T03:31:13;7.93;;;2.77;;
21806;SDS011;11065;50.786;7.840;2023-02-01T03:33:41;7.70;;;2.30;;
21806;SDS011;11065;50.786;7.840;2023-02-01T03:36:15;11.50;;;2.87;;
21806;SDS011;11065;50.786;7.840;2023-02-01T03:38:52;6.67;;;2.47;;
21806;SDS011;11065;50.786;7.840;2023-02-01T03:41:27;6.97;;;2.40;;
21806;SDS011;11065;50.786;7.840;2023-02-01T03:44:01;10.70;;;2.73;;
21806;SDS011;11065;50.786;7.840;2023-02-01T03:46:37;10.17;;;3.33;;
21806;SDS011;11065;50.786;7.840;2023-02-01T03:49:14;8.20;;;2.87;;
21806;SDS011;11065;50.786;7.840;2023-02-01T03:51:47;10.90;;;2.90;;
21806;SDS011;11065;50.786;7.840;2023-02-01T03:54:19;7.27;;;2.53;;
21806;SDS011;11065;50.786;7.840;2023-02-01T03:56:48;10.67;;;4.00;;
21806;SDS011;11065;50.786;7.840;2023-02-01T03:59:18;7.87;;;2.60;;
21806;SDS011;11065;50.786;7.840;2023-02-01T04:01:46;7.77;;;2.53;;
21806;SDS011;11065;50.786;7.840;2023-02-01T04:04:16;8.23;;;2.60;;
21806;SDS011;11065;50.786;7.840;2023-02-01T04:06:50;7.30;;;2.60;;
21806;SDS011;11065;50.786;7.840;2023-02-01T04:09:21;6.93;;;2.53;;
21806;SDS011;11065;50.786;7.840;2023-02-01T04:11:49;8.73;;;2.70;;
21806;SDS011;11065;50.786;7.840;2023-02-01T04:14:17;8.40;;;2.57;;
21806;SDS011;11065;50.786;7.840;2023-02-01T04:16:45;5.97;;;2.60;;
21806;SDS011;11065;50.786;7.840;2023-02-01T04:19:13;10.80;;;3.43;;
21806;SDS011;11065;50.786;7.840;2023-02-01T04:21:42;8.77;;;2.60;;
21806;SDS011;11065;50.786;7.840;2023-02-01T04:24:10;9.13;;;3.07;;
21806;SDS011;11065;50.786;7.840;2023-02-01T04:26:39;8.07;;;2.73;;
21806;SDS011;11065;50.786;7.840;2023-02-01T04:29:08;10.83;;;3.10;;
21806;SDS011;11065;50.786;7.840;2023-02-01T04:31:36;6.83;;;2.70;;
21806;SDS011;11065;50.786;7.840;2023-02-01T04:34:04;6.63;;;2.43;;
21806;SDS011;11065;50.786;7.840;2023-02-01T04:36:32;8.60;;;2.80;;
21806;SDS011;11065;50.786;7.840;2023-02-01T04:39:00;11.33;;;2.77;;
21806;SDS011;11065;50.786;7.840;2023-02-01T04:41:29;5.17;;;2.87;;
21806;SDS011;11065;50.786;7.840;2023-02-01T04:43:58;7.57;;;2.87;;
21806;SDS011;11065;50.786;7.840;2023-02-01T04:46:26;8.90;;;3.03;;
21806;SDS011;11065;50.786;7.840;2023-02-01T04:48:55;8.87;;;2.57;;
21806;SDS011;11065;50.786;7.840;2023-02-01T04:51:22;8.33;;;2.63;;
21806;SDS011;11065;50.786;7.840;2023-02-01T04:53:50;7.27;;;2.43;;
21806;SDS011;11065;50.786;7.840;2023-02-01T04:56:19;10.40;;;3.37;;
21806;SDS011;11065;50.786;7.840;2023-02-01T04:58:47;9.97;;;2.93;;
21806;SDS011;11065;50.786;7.840;2023-02-01T05:01:16;10.33;;;3.03;;
21806;SDS011;11065;50.786;7.840;2023-02-01T05:03:44;9.33;;;3.47;;
21806;SDS011;11065;50.786;7.840;2023-02-01T05:06:12;9.77;;;3.37;;
21806;SDS011;11065;50.786;7.840;2023-02-01T05:08:41;13.37;;;3.40;;
21806;SDS011;11065;50.786;7.840;2023-02-01T05:11:09;10.60;;;3.03;;
21806;SDS011;11065;50.786;7.840;2023-02-01T05:13:58;10.23;;;3.40;;
21806;SDS011;11065;50.786;7.840;2023-02-01T05:16:29;8.73;;;3.10;;
21806;SDS011;11065;50.786;7.840;2023-02-01T05:18:57;10.40;;;3.20;;
21806;SDS011;11065;50.786;7.840;2023-02-01T05:21:25;6.67;;;2.70;;
21806;SDS011;11065;50.786;7.840;2023-02-01T05:23:53;8.03;;;3.03;;
21806;SDS011;11065;50.786;7.840;2023-02-01T05:26:42;8.33;;;2.87;;
21806;SDS011;11065;50.786;7.840;2023-02-01T05:29:10;11.73;;;3.07;;
21806;SDS011;11065;50.786;7.840;2023-02-01T05:31:40;7.60;;;3.30;;
21806;SDS011;11065;50.786;7.840;2023-02-01T05:34:08;10.97;;;3.73;;
21806;SDS011;11065;50.786;7.840;2023-02-01T05:36:36;11.43;;;3.40;;
21806;SDS011;11065;50.786;7.840;2023-02-01T05:39:04;9.43;;;2.93;;
21806;SDS011;11065;50.786;7.840;2023-02-01T05:41:32;9.27;;;3.27;;
21806;SDS011;11065;50.786;7.840;2023-02-01T05:44:01;10.90;;;2.87;;
21806;SDS011;11065;50.786;7.840;2023-02-01T05:46:29;8.60;;;2.90;;
21806;SDS011;11065;50.786;7.840;2023-02-01T05:48:58;12.47;;;3.73;;
21806;SDS011;11065;50.786;7.840;2023-02-01T05:51:27;11.43;;;4.30;;
21806;SDS011;11065;50.786;7.840;2023-02-01T05:53:55;9.93;;;3.30;;
21806;SDS011;11065;50.786;7.840;2023-02-01T05:56:23;9.10;;;3.10;;
21806;SDS011;11065;50.786;7.840;2023-02-01T05:58:51;7.50;;;3.10;;
21806;SDS011;11065;50.786;7.840;2023-02-01T06:01:19;8.97;;;3.13;;
21806;SDS011;11065;50.786;7.840;2023-02-01T06:03:47;12.83;;;4.67;;
21806;SDS011;11065;50.786;7.840;2023-02-01T06:06:17;11.13;;;3.30;;
21806;SDS011;11065;50.786;7.840;2023-02-01T06:08:45;12.13;;;3.63;;
21806;SDS011;11065;50.786;7.840;2023-02-01T06:11:13;9.73;;;3.20;;
21806;SDS011;11065;50.786;7.840;2023-02-01T06:13:57;10.57;;;3.20;;
21806;SDS011;11065;50.786;7.840;2023-02-01T06:16:25;9.33;;;3.00;;
21806;SDS011;11065;50.786;7.840;2023-02-01T06:18:54;8.93;;;3.23;;
21806;SDS011;11065;50.786;7.840;2023-02-01T06:21:24;10.37;;;3.43;;
21806;SDS011;11065;50.786;7.840;2023-02-01T06:23:52;8.30;;;3.10;;
21806;SDS011;11065;50.786;7.840;2023-02-01T06:26:21;13.77;;;3.60;;
21806;SDS011;11065;50.786;7.840;2023-02-01T06:28:50;8.67;;;3.10;;
21806;SDS011;11065;50.786;7.840;2023-02-01T06:31:18;6.60;;;2.63;;
21806;SDS011;11065;50.786;7.840;2023-02-01T06:33:46;8.27;;;2.90;;
21806;SDS011;11065;50.786;7.840;2023-02-01T06:36:15;11.43;;;3.37;;
21806;SDS011;11065;50.786;7.840;2023-02-01T06:38:46;10.67;;;3.33;;
21806;SDS011;11065;50.786;7.840;2023-02-01T06:41:14;6.53;;;2.73;;
21806;SDS011;11065;50.786;7.840;2023-02-01T06:43:43;10.63;;;3.27;;
21806;SDS011;11065;50.786;7.840;2023-02-01T06:46:12;11.60;;;3.40;;
21806;SDS011;11065;50.786;7.840;2023-02-01T06:48:40;9.17;;;3.00;;
21806;SDS011;11065;50.786;7.840;2023-02-01T06:51:16;7.60;;;2.57;;
21806;SDS011;11065;50.786;7.840;2023-02-01T06:53:48;9.97;;;2.97;;
21806;SDS011;11065;50.786;7.840;2023-02-01T06:56:17;12.47;;;3.10;;
21806;SDS011;11065;50.786;7.840;2023-02-01T06:58:46;9.53;;;3.30;;
21806;SDS011;11065;50.786;7.840;2023-02-01T07:01:15;14.20;;;3.77;;
21806;SDS011;11065;50.786;7.840;2023-02-01T07:03:46;7.40;;;2.73;;
21806;SDS011;11065;50.786;7.840;2023-02-01T07:06:16;9.13;;;3.03;;
21806;SDS011;11065;50.786;7.840;2023-02-01T07:08:45;7.63;;;2.70;;
21806;SDS011;11065;50.786;7.840;2023-02-01T07:11:15;8.87;;;2.63;;
21806;SDS011;11065;50.786;7.840;2023-02-01T07:13:44;10.73;;;3.10;;
21806;SDS011;11065;50.786;7.840;2023-02-01T07:16:14;9.70;;;2.80;;
21806;SDS011;11065;50.786;7.840;2023-02-01T07:18:43;11.20;;;3.20;;
21806;SDS011;11065;50.786;7.840;2023-02-01T07:21:12;10.60;;;2.97;;
21806;SDS011;11065;50.786;7.840;2023-02-01T07:23:40;8.40;;;2.67;;
21806;SDS011;11065;50.786;7.840;2023-02-01T07:26:10;8.30;;;3.20;;
21806;SDS011;11065;50.786;7.840;2023-02-01T07:28:40;11.83;;;3.30;;
21806;SDS011;11065;50.786;7.840;2023-02-01T07:31:10;9.10;;;3.20;;
21806;SDS011;11065;50.786;7.840;2023-02-01T07:33:39;12.63;;;4.07;;
21806;SDS011;11065;50.786;7.840;2023-02-01T07:36:10;10.50;;;3.50;;
21806;SDS011;11065;50.786;7.840;2023-02-01T07:38:39;8.33;;;2.97;;
21806;SDS011;11065;50.786;7.840;2023-02-01T07:41:07;11.10;;;2.97;;
21806;SDS011;11065;50.786;7.840;2023-02-01T07:43:36;10.63;;;3.17;;
21806;SDS011;11065;50.786;7.840;2023-02-01T07:46:06;12.37;;;3.50;;
21806;SDS011;11065;50.786;7.840;2023-02-01T07:48:34;11.67;;;3.63;;
21806;SDS011;11065;50.786;7.840;2023-02-01T07:51:03;11.20;;;3.43;;
21806;SDS011;11065;50.786;7.840;2023-02-01T07:53:32;11.87;;;3.17;;
21806;SDS011;11065;50.786;7.840;2023-02-01T07:56:01;9.03;;;3.13;;
21806;SDS011;11065;50.786;7.840;2023-02-01T07:58:30;10.10;;;3.50;;
21806;SDS011;11065;50.786;7.840;2023-02-01T08:00:58;10.93;;;3.93;;
21806;SDS011;11065;50.786;7.840;2023-02-01T08:03:46;9.83;;;3.33;;
21806;SDS011;11065;50.786;7.840;2023-02-01T08:06:15;9.50;;;3.23;;
21806;SDS011;11065;50.786;7.840;2023-02-01T08:08:43;9.70;;;3.10;;
21806;SDS011;11065;50.786;7.840;2023-02-01T08:11:13;9.63;;;2.90;;
21806;SDS011;11065;50.786;7.840;2023-02-01T08:13:42;10.67;;;4.37;;
21806;SDS011;11065;50.786;7.840;2023-02-01T08:16:10;10.40;;;3.60;;
21806;SDS011;11065;50.786;7.840;2023-02-01T08:18:40;12.33;;;3.70;;
21806;SDS011;11065;50.786;7.840;2023-02-01T08:21:10;9.53;;;3.70;;
21806;SDS011;11065;50.786;7.840;2023-02-01T08:23:39;9.77;;;3.10;;
21806;SDS011;11065;50.786;7.840;2023-02-01T08:26:09;13.87;;;3.67;;
21806;SDS011;11065;50.786;7.840;2023-02-01T08:28:40;11.93;;;3.30;;
21806;SDS011;11065;50.786;7.840;2023-02-01T08:31:11;8.37;;;3.10;;
21806;SDS011;11065;50.786;7.840;2023-02-01T08:33:41;10.67;;;3.07;;
21806;SDS011;11065;50.786;7.840;2023-02-01T08:36:12;9.00;;;3.03;;
21806;SDS011;11065;50.786;7.840;2023-02-01T08:38:40;10.10;;;2.93;;
21806;SDS011;11065;50.786;7.840;2023-02-01T08:41:08;8.33;;;3.03;;
21806;SDS011;11065;50.786;7.840;2023-02-01T08:43:38;10.80;;;3.03;;
21806;SDS011;11065;50.786;7.840;2023-02-01T08:46:06;16.20;;;4.13;;
21806;SDS011;11065;50.786;7.840;2023-02-01T08:48:35;10.50;;;3.40;;
21806;SDS011;11065;50.786;7.840;2023-02-01T08:51:03;10.93;;;3.90;;
21806;SDS011;11065;50.786;7.840;2023-02-01T08:53:35;9.93;;;2.90;;
21806;SDS011;11065;50.786;7.840;2023-02-01T08:56:03;11.23;;;3.57;;
21806;SDS011;11065;50.786;7.840;2023-02-01T08:58:32;9.70;;;3.37;;
21806;SDS011;11065;50.786;7.840;2023-02-01T09:01:02;12.03;;;3.20;;
21806;SDS011;11065;50.786;7.840;2023-02-01T09:03:32;11.43;;;2.93;;
21806;SDS011;11065;50.786;7.840;2023-02-01T09:06:00;9.27;;;3.23;;
21806;SDS011;11065;50.786;7.840;2023-02-01T09:08:29;9.53;;;3.27;;
21806;SDS011;11065;50.786;7.840;2023-02-01T09:10:59;12.60;;;3.50;;
21806;SDS011;11065;50.786;7.840;2023-02-01T09:13:29;12.23;;;3.47;;
21806;SDS011;11065;50.786;7.840;2023-02-01T09:15:57;8.87;;;3.10;;
21806;SDS011;11065;50.786;7.840;2023-02-01T09:18:26;8.80;;;2.93;;
21806;SDS011;11065;50.786;7.840;2023-02-01T09:20:54;13.23;;;3.53;;
21806;SDS011;11065;50.786;7.840;2023-02-01T09:23:23;10.60;;;3.40;;
21806;SDS011;11065;50.786;7.840;2023-02-01T09:25:51;7.13;;;2.83;;
21806;SDS011;11065;50.786;7.840;2023-02-01T09:28:20;7.40;;;2.70;;
21806;SDS011;11065;50.786;7.840;2023-02-01T09:30:48;9.87;;;3.10;;
21806;SDS011;11065;50.786;7.840;2023-02-01T09:33:16;11.83;;;4.00;;
21806;SDS011;11065;50.786;7.840;2023-02-01T09:35:45;10.23;;;3.03;;
21806;SDS011;11065;50.786;7.840;2023-02-01T09:38:13;9.00;;;2.33;;
21806;SDS011;11065;50.786;7.840;2023-02-01T09:40:42;8.27;;;3.40;;
21806;SDS011;11065;50.786;7.840;2023-02-01T09:43:19;10.80;;;3.17;;
21806;SDS011;11065;50.786;7.840;2023-02-01T09:45:59;7.87;;;2.73;;
21806;SDS011;11065;50.786;7.840;2023-02-01T09:48:36;9.90;;;2.80;;
21806;SDS011;11065;50.786;7.840;2023-02-01T09:51:11;10.60;;;3.27;;
21806;SDS011;11065;50.786;7.840;2023-02-01T09:53:43;11.03;;;3.27;;
21806;SDS011;11065;50.786;7.840;2023-02-01T09:56:18;8.63;;;3.43;;
21806;SDS011;11065;50.786;7.840;2023-02-01T09:58:51;12.37;;;2.73;;
21806;SDS011;11065;50.786;7.840;2023-02-01T10:01:26;7.80;;;2.50;;
21806;SDS011;11065;50.786;7.840;2023-02-01T10:03:57;7.87;;;2.83;;
21806;SDS011;11065;50.786;7.840;2023-02-01T10:06:31;8.60;;;3.63;;
21806;SDS011;11065;50.786;7.840;2023-02-01T10:12:17;9.10;;;2.60;;
21806;SDS011;11065;50.786;7.840;2023-02-01T10:15:09;10.87;;;2.70;;
21806;SDS011;11065;50.786;7.840;2023-02-01T10:17:55;8.07;;;2.37;;
21806;SDS011;11065;50.786;7.840;2023-02-01T10:20:36;10.17;;;2.63;;
21806;SDS011;11065;50.786;7.840;2023-02-01T10:23:21;15.63;;;2.83;;
21806;SDS011;11065;50.786;7.840;2023-02-01T10:26:04;12.60;;;3.00;;
21806;SDS011;11065;50.786;7.840;2023-02-01T10:28:40;10.83;;;2.97;;
21806;SDS011;11065;50.786;7.840;2023-02-01T10:31:12;9.07;;;3.10;;
21806;SDS011;11065;50.786;7.840;2023-02-01T10:33:41;10.20;;;3.10;;
21806;SDS011;11065;50.786;7.840;2023-02-01T10:36:13;9.70;;;2.80;;
21806;SDS011;11065;50.786;7.840;2023-02-01T10:38:44;10.80;;;2.90;;
21806;SDS011;11065;50.786;7.840;2023-02-01T10:41:13;11.00;;;2.83;;
21806;SDS011;11065;50.786;7.840;2023-02-01T10:43:44;9.87;;;2.23;;
21806;SDS011;11065;50.786;7.840;2023-02-01T10:46:17;9.63;;;2.60;;
21806;SDS011;11065;50.786;7.840;2023-02-01T10:48:46;10.17;;;2.70;;
21806;SDS011;11065;50.786;7.840;2023-02-01T10:51:16;8.27;;;2.83;;
21806;SDS011;11065;50.786;7.840;2023-02-01T10:53:50;9.73;;;2.80;;
21806;SDS011;11065;50.786;7.840;2023-02-01T10:56:23;10.80;;;2.90;;
21806;SDS011;11065;50.786;7.840;2023-02-01T10:58:59;8.13;;;2.30;;
21806;SDS011;11065;50.786;7.840;2023-02-01T11:01:30;7.47;;;2.30;;
21806;SDS011;11065;50.786;7.840;2023-02-01T11:04:03;7.87;;;2.30;;
21806;SDS011;11065;50.786;7.840;2023-02-01T11:06:33;9.53;;;2.97;;
21806;SDS011;11065;50.786;7.840;2023-02-01T11:09:09;9.17;;;3.67;;
21806;SDS011;11065;50.786;7.840;2023-02-01T11:11:52;9.43;;;2.77;;
21806;SDS011;11065;50.786;7.840;2023-02-01T11:14:27;11.97;;;3.00;;
21806;SDS011;11065;50.786;7.840;2023-02-01T11:17:12;6.93;;;2.47;;
21806;SDS011;11065;50.786;7.840;2023-02-01T11:19:55;9.07;;;2.83;;
21806;SDS011;11065;50.786;7.840;2023-02-01T11:22:25;10.67;;;2.20;;
21806;SDS011;11065;50.786;7.840;2023-02-01T11:24:55;7.40;;;2.10;;
21806;SDS011;11065;50.786;7.840;2023-02-01T11:27:24;6.43;;;2.10;;
21806;SDS011;11065;50.786;7.840;2023-02-01T11:29:55;6.70;;;2.37;;
21806;SDS011;11065;50.786;7.840;2023-02-01T11:32:29;9.40;;;2.50;;
21806;SDS011;11065;50.786;7.840;2023-02-01T11:34:59;11.30;;;2.63;;
21806;SDS011;11065;50.786;7.840;2023-02-01T11:37:31;9.17;;;2.20;;
21806;SDS011;11065;50.786;7.840;2023-02-01T11:40:08;9.33;;;2.60;;
21806;SDS011;11065;50.786;7.840;2023-02-01T11:42:53;8.40;;;2.00;;
21806;SDS011;11065;50.786;7.840;2023-02-01T11:45:24;9.03;;;2.23;;
21806;SDS011;11065;50.786;7.840;2023-02-01T11:47:57;9.53;;;3.20;;
21806;SDS011;11065;50.786;7.840;2023-02-01T11:50:29;8.20;;;2.07;;
21806;SDS011;11065;50.786;7.840;2023-02-01T11:53:06;10.07;;;2.30;;
21806;SDS011;11065;50.786;7.840;2023-02-01T11:55:49;6.97;;;1.93;;
21806;SDS011;11065;50.786;7.840;2023-02-01T11:58:45;8.83;;;2.70;;
21806;SDS011;11065;50.786;7.840;2023-02-01T12:01:38;6.50;;;2.07;;
21806;SDS011;11065;50.786;7.840;2023-02-01T12:04:36;8.83;;;1.90;;
21806;SDS011;11065;50.786;7.840;2023-02-01T12:07:28;7.83;;;2.20;;
21806;SDS011;11065;50.786;7.840;2023-02-01T12:10:16;8.03;;;1.93;;
21806;SDS011;11065;50.786;7.840;2023-02-01T12:12:57;8.90;;;2.47;;
21806;SDS011;11065;50.786;7.840;2023-02-01T12:15:35;7.23;;;2.23;;
21806;SDS011;11065;50.786;7.840;2023-02-01T12:18:24;8.07;;;2.20;;
21806;SDS011;11065;50.786;7.840;2023-02-01T12:21:26;10.07;;;2.30;;
21806;SDS011;11065;50.786;7.840;2023-02-01T12:24:11;7.70;;;1.80;;
21806;SDS011;11065;50.786;7.840;2023-02-01T12:26:51;6.43;;;1.90;;
21806;SDS011;11065;50.786;7.840;2023-02-01T12:29:35;8.20;;;2.17;;
21806;SDS011;11065;50.786;7.840;2023-02-01T12:32:28;7.07;;;1.90;;
21806;SDS011;11065;50.786;7.840;2023-02-01T12:35:13;6.30;;;2.03;;
21806;SDS011;11065;50.786;7.840;2023-02-01T12:37:54;10.00;;;2.40;;
21806;SDS011;11065;50.786;7.840;2023-02-01T12:40:37;8.77;;;2.63;;
21806;SDS011;11065;50.786;7.840;2023-02-01T12:43:13;8.07;;;2.30;;
21806;SDS011;11065;50.786;7.840;2023-02-01T12:45:49;7.67;;;3.33;;
21806;SDS011;11065;50.786;7.840;2023-02-01T12:48:24;9.07;;;2.10;;
21806;SDS011;11065;50.786;7.840;2023-02-01T12:50:58;8.27;;;2.67;;
21806;SDS011;11065;50.786;7.840;2023-02-01T12:53:33;9.87;;;2.90;;
21806;SDS011;11065;50.786;7.840;2023-02-01T12:56:14;6.80;;;2.40;;
21806;SDS011;11065;50.786;7.840;2023-02-01T12:58:50;7.70;;;2.13;;
21806;SDS011;11065;50.786;7.840;2023-02-01T13:01:22;6.57;;;2.00;;
21806;SDS011;11065;50.786;7.840;2023-02-01T13:03:57;5.97;;;2.00;;
21806;SDS011;11065;50.786;7.840;2023-02-01T13:06:32;11.00;;;2.30;;
21806;SDS011;11065;50.786;7.840;2023-02-01T13:09:08;6.00;;;2.10;;
21806;SDS011;11065;50.786;7.840;2023-02-01T13:11:53;9.13;;;2.30;;
21806;SDS011;11065;50.786;7.840;2023-02-01T13:14:27;8.07;;;1.80;;
21806;SDS011;11065;50.786;7.840;2023-02-01T13:17:02;9.17;;;2.07;;
21806;SDS011;11065;50.786;7.840;2023-02-01T13:19:37;6.63;;;2.00;;
21806;SDS011;11065;50.786;7.840;2023-02-01T13:22:13;6.23;;;1.90;;
21806;SDS011;11065;50.786;7.840;2023-02-01T13:24:49;8.40;;;2.07;;
21806;SDS011;11065;50.786;7.840;2023-02-01T13:27:20;7.77;;;2.30;;
21806;SDS011;11065;50.786;7.840;2023-02-01T13:29:51;9.07;;;2.57;;
21806;SDS011;11065;50.786;7.840;2023-02-01T13:32:30;7.17;;;2.67;;
21806;SDS011;11065;50.786;7.840;2023-02-01T13:38:39;7.83;;;2.27;;
21806;SDS011;11065;50.786;7.840;2023-02-01T13:41:30;11.17;;;2.90;;
21806;SDS011;11065;50.786;7.840;2023-02-01T13:44:03;8.70;;;2.30;;
21806;SDS011;11065;50.786;7.840;2023-02-01T13:46:38;5.50;;;1.90;;
21806;SDS011;11065;50.786;7.840;2023-02-01T13:49:13;7.20;;;1.73;;
21806;SDS011;11065;50.786;7.840;2023-02-01T13:51:48;12.47;;;2.20;;
21806;SDS011;11065;50.786;7.840;2023-02-01T13:54:26;7.60;;;2.60;;
21806;SDS011;11065;50.786;7.840;2023-02-01T13:57:00;7.13;;;2.27;;
21806;SDS011;11065;50.786;7.840;2023-02-01T13:59:44;5.93;;;1.60;;
21806;SDS011;11065;50.786;7.840;2023-02-01T14:02:35;6.57;;;2.20;;
21806;SDS011;11065;50.786;7.840;2023-02-01T14:05:59;6.80;;;1.90;;
21806;SDS011;11065;50.786;7.840;2023-02-01T14:08:35;4.57;;;1.83;;
21806;SDS011;11065;50.786;7.840;2023-02-01T14:11:06;8.10;;;1.97;;
21806;SDS011;11065;50.786;7.840;2023-02-01T14:13:54;10.47;;;2.63;;
21806;SDS011;11065;50.786;7.840;2023-02-01T14:16:22;9.93;;;2.60;;
21806;SDS011;11065;50.786;7.840;2023-02-01T14:18:57;11.07;;;4.20;;
21806;SDS011;11065;50.786;7.840;2023-02-01T14:21:28;12.27;;;3.07;;
21806;SDS011;11065;50.786;7.840;2023-02-01T14:24:00;6.00;;;2.00;;
21806;SDS011;11065;50.786;7.840;2023-02-01T14:29:21;6.50;;;2.00;;
21806;SDS011;11065;50.786;7.840;2023-02-01T14:31:54;7.33;;;2.47;;
21806;SDS011;11065;50.786;7.840;2023-02-01T14:34:39;8.47;;;2.27;;
21806;SDS011;11065;50.786;7.840;2023-02-01T14:37:24;8.10;;;2.20;;
21806;SDS011;11065;50.786;7.840;2023-02-01T14:39:56;8.93;;;2.30;;
21806;SDS011;11065;50.786;7.840;2023-02-01T14:42:28;12.30;;;2.50;;
21806;SDS011;11065;50.786;7.840;2023-02-01T14:51:11;8.47;;;2.20;;
21806;SDS011;11065;50.786;7.840;2023-02-01T14:53:42;6.80;;;1.83;;
21806;SDS011;11065;50.786;7.840;2023-02-01T14:56:15;9.70;;;2.33;;
21806;SDS011;11065;50.786;7.840;2023-02-01T14:58:48;8.93;;;2.00;;
21806;SDS011;11065;50.786;7.840;2023-02-01T15:01:25;6.53;;;1.83;;
21806;SDS011;11065;50.786;7.840;2023-02-01T15:03:58;6.07;;;1.73;;
21806;SDS011;11065;50.786;7.840;2023-02-01T15:06:32;5.67;;;1.90;;
21806;SDS011;11065;50.786;7.840;2023-02-01T15:09:09;8.50;;;1.93;;
21806;SDS011;11065;50.786;7.840;2023-02-01T15:14:29;9.60;;;1.80;;
21806;SDS011;11065;50.786;7.840;2023-02-01T15:16:58;9.33;;;2.23;;
21806;SDS011;11065;50.786;7.840;2023-02-01T15:19:27;7.63;;;1.90;;
21806;SDS011;11065;50.786;7.840;2023-02-01T15:21:57;10.50;;;2.20;;
21806;SDS011;11065;50.786;7.840;2023-02-01T15:24:28;6.87;;;1.93;;
21806;SDS011;11065;50.786;7.840;2023-02-01T15:27:03;7.43;;;2.40;;
21806;SDS011;11065;50.786;7.840;2023-02-01T15:29:33;8.87;;;1.77;;
21806;SDS011;11065;50.786;7.840;2023-02-01T15:32:01;7.90;;;1.80;;
21806;SDS011;11065;50.786;7.840;2023-02-01T15:34:46;9.57;;;1.97;;
21806;SDS011;11065;50.786;7.840;2023-02-01T15:37:16;7.07;;;1.67;;
21806;SDS011;11065;50.786;7.840;2023-02-01T15:40:05;8.17;;;1.77;;
21806;SDS011;11065;50.786;7.840;2023-02-01T15:42:53;8.47;;;2.00;;
21806;SDS011;11065;50.786;7.840;2023-02-01T15:45:25;7.33;;;2.20;;
21806;SDS011;11065;50.786;7.840;2023-02-01T15:47:55;7.80;;;1.97;;